Terminal Aerodrome Forecast
Issued by NWS Austin/San Antonio, TX

Home | Current Version | Previous Version | Text Only | Print | Product List | Glossary On
Versions: 1 2 3 4 5 6 7 8 9 10 11 12 13 14 15 16 17 18 19 20 21 22 23 24 25 26 27 28 29 30 31 32 33 34 35 36 37 38 39 40 41 42 43 44 45
000
FTUS44 KEWX 212214 AAA
TAFAUS
TAF AMD
KAUS 212214Z 2122/2224 18013KT P6SM BKN020 OVC045
      TEMPO 2122/2202 6SM -RA BR
     FM220300 21010KT P6SM SCT020 SCT040 BKN250
     FM220700 28008KT P6SM SCT250
     FM221600 33014KT P6SM FEW250=

USA.gov is the U.S. government's official web portal to all federal, state and local government web resources and services.